Time;durP1;ratioP1;P1;durP2;ratioP2;P2;SDS_P1;SDS_P2;PMS_P1;PMS_P2;Temp;Humidity;BMP_temperature;BMP_pressure;BME280_temperature;BME280_humidity;BME280_pressure;Samples;Min_cycle;Max_cycle;Signal;HPM_P1;HPM_P2
2022/12/05 00:00:17;;;;;;;14.27;8.77;;;;;;;;;;5104445;28;20032;-52
2022/12/05 00:02:43;;;;;;;13.68;8.05;;;;;;;;;;5089492;28;20032;-52
2022/12/05 00:05:10;;;;;;;13.05;8.65;;;;;;;;;;5095227;28;20023;-52
2022/12/05 00:07:36;;;;;;;12.50;8.23;;;;;;;;;;5112610;28;20022;-52
2022/12/05 00:10:02;;;;;;;16.60;9.90;;;;;;;;;;5111567;28;20032;-51
2022/12/05 00:12:28;;;;;;;15.90;10.25;;;;;;;;;;5112319;28;20055;-49
2022/12/05 00:14:54;;;;;;;18.02;9.95;;;;;;;;;;5111069;28;20067;-50
2022/12/05 00:17:20;;;;;;;16.05;9.63;;;;;;;;;;5110783;28;20028;-51
2022/12/05 00:19:46;;;;;;;14.80;8.27;;;;;;;;;;5112898;28;20034;-52
2022/12/05 00:22:12;;;;;;;14.18;7.68;;;;;;;;;;5112256;28;20031;-50
2022/12/05 00:24:38;;;;;;;11.80;7.38;;;;;;;;;;5112433;28;20655;-48
2022/12/05 00:27:05;;;;;;;9.27;6.07;;;;;;;;;;5112177;28;20085;-51
2022/12/05 00:29:31;;;;;;;11.57;6.80;;;;;;;;;;5112151;28;20031;-49
2022/12/05 00:31:57;;;;;;;11.23;6.28;;;;;;;;;;5110598;28;20100;-51
2022/12/05 00:34:23;;;;;;;8.80;5.65;;;;;;;;;;5112089;28;20024;-49
2022/12/05 00:36:49;;;;;;;8.15;5.22;;;;;;;;;;5103167;28;20043;-52
2022/12/05 00:39:15;;;;;;;8.90;6.00;;;;;;;;;;5092190;28;20437;-52
2022/12/05 00:41:42;;;;;;;9.65;6.00;;;;;;;;;;5091604;28;20024;-48
2022/12/05 00:44:08;;;;;;;12.00;7.38;;;;;;;;;;5091293;28;20519;-50
2022/12/05 00:46:34;;;;;;;15.00;8.35;;;;;;;;;;5091427;28;20021;-51
2022/12/05 00:49:01;;;;;;;11.02;7.07;;;;;;;;;;5091481;28;20038;-49
2022/12/05 00:51:29;;;;;;;10.45;6.55;;;;;;;;;;5096191;28;20510;-51
2022/12/05 00:53:57;;;;;;;10.18;6.30;;;;;;;;;;5111696;28;20053;-51
2022/12/05 00:56:24;;;;;;;8.80;6.15;;;;;;;;;;5098769;28;20020;-50
2022/12/05 00:58:51;;;;;;;8.63;5.53;;;;;;;;;;5091702;28;20064;-50
2022/12/05 01:01:19;;;;;;;7.28;4.80;;;;;;;;;;5091710;28;20020;-50
2022/12/05 06:10:40;;;;;;;7.53;4.65;;;;;;;;;;5094257;28;20092;-51
2022/12/05 06:13:07;;;;;;;5.38;4.15;;;;;;;;;;5092788;28;20468;-48
2022/12/05 06:15:34;;;;;;;7.15;5.20;;;;;;;;;;5097328;28;20105;-51
2022/12/05 06:18:00;;;;;;;7.75;4.95;;;;;;;;;;5103787;28;20425;-51
2022/12/05 06:20:26;;;;;;;8.13;4.63;;;;;;;;;;5106953;28;20059;-51
2022/12/05 06:22:51;;;;;;;7.03;4.80;;;;;;;;;;5098702;28;20027;-51
2022/12/05 06:25:17;;;;;;;7.75;5.10;;;;;;;;;;5098838;28;20077;-52
2022/12/05 06:27:43;;;;;;;8.20;5.55;;;;;;;;;;5092444;28;20031;-53
2022/12/05 06:30:10;;;;;;;8.10;5.88;;;;;;;;;;5099661;27;20032;-51
2022/12/05 06:32:36;;;;;;;9.55;6.60;;;;;;;;;;5101213;28;20455;-51
2022/12/05 06:35:14;;;;;;;9.20;6.50;;;;;;;;;;5102989;28;20035;-52
2022/12/05 06:37:44;;;;;;;9.93;6.18;;;;;;;;;;5099704;28;20020;-51
2022/12/05 06:40:10;;;;;;;8.13;5.88;;;;;;;;;;5101413;28;20031;-52
2022/12/05 06:42:36;;;;;;;7.68;5.50;;;;;;;;;;5103014;28;20038;-52
2022/12/05 06:45:03;;;;;;;6.75;4.93;;;;;;;;;;5104373;28;20403;-51
2022/12/05 06:47:29;;;;;;;6.10;4.32;;;;;;;;;;5104231;28;20579;-49
2022/12/05 06:49:55;;;;;;;6.22;4.30;;;;;;;;;;5103124;28;20054;-51
2022/12/05 06:52:21;;;;;;;7.25;4.32;;;;;;;;;;5103115;28;20885;-51
2022/12/05 06:54:47;;;;;;;5.03;3.80;;;;;;;;;;5103332;28;20059;-50
2022/12/05 06:57:13;;;;;;;5.97;4.03;;;;;;;;;;5103505;28;20051;-52
2022/12/05 06:59:39;;;;;;;6.57;4.60;;;;;;;;;;5101417;28;20073;-50
2022/12/05 07:02:07;;;;;;;9.90;5.50;;;;;;;;;;5101645;28;20049;-51
2022/12/05 07:04:33;;;;;;;10.95;5.82;;;;;;;;;;5104697;28;20072;-52
2022/12/05 07:07:01;;;;;;;7.28;4.93;;;;;;;;;;5103413;28;20024;-50
2022/12/05 07:09:50;;;;;;;8.68;5.60;;;;;;;;;;5103950;28;20028;-49
2022/12/05 07:12:17;;;;;;;8.00;5.10;;;;;;;;;;5102126;28;20035;-50
2022/12/05 07:14:43;;;;;;;7.38;4.45;;;;;;;;;;5106466;28;20035;-50
2022/12/05 07:17:09;;;;;;;8.32;5.20;;;;;;;;;;5106629;28;20173;-51
2022/12/05 07:19:35;;;;;;;7.13;4.88;;;;;;;;;;5103937;28;20103;-51
2022/12/05 07:22:01;;;;;;;7.65;4.85;;;;;;;;;;5106576;28;20024;-51
2022/12/05 07:24:27;;;;;;;9.18;5.07;;;;;;;;;;5108415;28;20390;-51
2022/12/05 07:26:53;;;;;;;6.88;5.15;;;;;;;;;;5107330;28;20027;-51
2022/12/05 07:29:19;;;;;;;7.55;5.10;;;;;;;;;;5108812;28;20613;-47
2022/12/05 07:31:45;;;;;;;8.48;5.05;;;;;;;;;;5104668;28;20043;-52
2022/12/05 07:34:11;;;;;;;8.90;5.55;;;;;;;;;;5104560;28;20031;-50
2022/12/05 07:36:37;;;;;;;8.98;5.63;;;;;;;;;;5105260;28;20027;-48
2022/12/05 07:39:03;;;;;;;7.70;4.97;;;;;;;;;;5112081;28;20028;-52
2022/12/05 07:41:30;;;;;;;7.10;4.55;;;;;;;;;;5110724;28;20080;-51
2022/12/05 07:43:57;;;;;;;8.63;4.93;;;;;;;;;;5114434;28;20032;-51
2022/12/05 07:46:24;;;;;;;6.20;3.97;;;;;;;;;;5100683;28;20101;-51
2022/12/05 07:48:50;;;;;;;6.60;4.28;;;;;;;;;;5105730;28;20166;-50
2022/12/05 07:51:16;;;;;;;8.60;5.03;;;;;;;;;;5106419;28;20099;-50
2022/12/05 07:53:43;;;;;;;7.85;4.28;;;;;;;;;;5113994;28;20031;-48
2022/12/05 07:56:10;;;;;;;7.00;4.45;;;;;;;;;;5096668;28;20024;-47
2022/12/05 07:58:37;;;;;;;7.55;4.68;;;;;;;;;;5091597;28;20436;-47
2022/12/05 08:01:10;;;;;;;7.60;3.95;;;;;;;;;;5114618;28;20024;-49
2022/12/05 08:03:36;;;;;;;6.18;3.95;;;;;;;;;;5114633;28;20024;-50
2022/12/05 08:06:06;;;;;;;4.97;3.50;;;;;;;;;;5114680;28;20020;-50
2022/12/05 08:08:32;;;;;;;5.72;3.45;;;;;;;;;;5114892;28;20054;-50
2022/12/05 08:11:07;;;;;;;5.00;3.55;;;;;;;;;;5101951;28;20032;-47
2022/12/05 08:13:34;;;;;;;5.22;3.13;;;;;;;;;;5092851;28;20024;-50
2022/12/05 08:16:01;;;;;;;4.38;3.28;;;;;;;;;;5102613;28;20502;-51
2022/12/05 08:18:27;;;;;;;5.25;3.30;;;;;;;;;;5112940;27;20092;-48
2022/12/05 08:20:53;;;;;;;3.80;2.88;;;;;;;;;;5104307;27;20040;-50
2022/12/05 08:23:19;;;;;;;4.60;2.88;;;;;;;;;;5104649;28;20024;-50
2022/12/05 08:25:45;;;;;;;2.90;2.20;;;;;;;;;;5112784;28;20059;-50
2022/12/05 08:28:11;;;;;;;3.60;2.70;;;;;;;;;;5110801;28;20697;-49
2022/12/05 08:30:37;;;;;;;3.85;2.50;;;;;;;;;;5110092;27;20026;-48
2022/12/05 08:33:03;;;;;;;3.28;2.20;;;;;;;;;;5132399;27;20662;-50
2022/12/05 08:35:29;;;;;;;4.55;2.75;;;;;;;;;;5122018;27;20093;-51
2022/12/05 08:37:55;;;;;;;6.82;3.75;;;;;;;;;;5111866;28;20037;-48
2022/12/05 08:40:21;;;;;;;7.50;4.43;;;;;;;;;;5111934;28;20047;-51
2022/12/05 08:42:47;;;;;;;10.02;5.30;;;;;;;;;;5107024;28;20062;-49
2022/12/05 08:45:13;;;;;;;9.40;4.93;;;;;;;;;;5091354;28;20020;-49
2022/12/05 08:47:39;;;;;;;7.22;4.47;;;;;;;;;;5101208;28;20028;-52
2022/12/05 08:50:05;;;;;;;11.38;5.63;;;;;;;;;;5111641;28;20471;-51
2022/12/05 08:52:31;;;;;;;10.80;5.10;;;;;;;;;;5111591;28;20111;-51
2022/12/05 08:54:57;;;;;;;7.80;4.00;;;;;;;;;;5111540;28;20103;-51
2022/12/05 08:57:23;;;;;;;7.18;3.90;;;;;;;;;;5111401;28;20686;-49
2022/12/05 08:59:49;;;;;;;5.75;3.60;;;;;;;;;;5112190;28;20027;-51
2022/12/05 09:02:15;;;;;;;5.03;3.47;;;;;;;;;;5110821;28;20507;-49
2022/12/05 09:04:41;;;;;;;7.28;3.72;;;;;;;;;;5111378;28;20028;-50
2022/12/05 09:07:07;;;;;;;5.03;3.67;;;;;;;;;;5111496;28;20023;-49
2022/12/05 09:09:33;;;;;;;4.47;3.13;;;;;;;;;;5111385;28;20042;-52
2022/12/05 09:11:59;;;;;;;5.40;3.90;;;;;;;;;;5111168;28;20031;-51
2022/12/05 09:14:31;;;;;;;6.32;3.95;;;;;;;;;;5111368;28;20024;-49
2022/12/05 09:16:57;;;;;;;4.78;3.50;;;;;;;;;;5111188;28;20023;-49
2022/12/05 09:19:26;;;;;;;5.32;3.72;;;;;;;;;;5111136;28;20028;-51
2022/12/05 09:21:52;;;;;;;4.68;3.63;;;;;;;;;;5111341;28;20673;-49
2022/12/05 09:24:18;;;;;;;5.80;3.85;;;;;;;;;;5111438;28;20023;-51
2022/12/05 09:26:44;;;;;;;5.18;3.53;;;;;;;;;;5110857;28;20106;-51
2022/12/05 09:29:11;;;;;;;6.40;4.18;;;;;;;;;;5110806;28;20026;-52
2022/12/05 09:31:37;;;;;;;6.07;4.15;;;;;;;;;;5110815;28;20051;-50
2022/12/05 09:34:04;;;;;;;7.03;4.43;;;;;;;;;;5101660;28;20031;-51
2022/12/05 09:36:30;;;;;;;6.35;4.25;;;;;;;;;;5092050;28;20035;-50
2022/12/05 09:38:59;;;;;;;7.00;4.45;;;;;;;;;;5109193;28;20099;-53
2022/12/05 09:44:29;;;;;;;6.53;4.65;;;;;;;;;;5104658;27;20081;-52
2022/12/05 09:46:58;;;;;;;7.25;4.70;;;;;;;;;;5110678;28;20097;-50
2022/12/05 09:49:25;;;;;;;8.02;4.70;;;;;;;;;;5110623;28;20027;-50
2022/12/05 09:51:51;;;;;;;7.82;4.80;;;;;;;;;;5108219;28;20020;-53
2022/12/05 09:54:18;;;;;;;8.60;4.95;;;;;;;;;;5100290;28;20394;-52
2022/12/05 09:56:44;;;;;;;8.38;5.05;;;;;;;;;;5099293;28;20777;-52
2022/12/05 09:59:14;;;;;;;6.45;4.20;;;;;;;;;;5107445;28;20020;-51
2022/12/05 10:01:49;;;;;;;9.95;5.82;;;;;;;;;;5100450;28;20024;-52
2022/12/05 10:04:21;;;;;;;13.18;7.13;;;;;;;;;;5108593;28;20028;-50
2022/12/05 10:06:59;;;;;;;10.48;6.20;;;;;;;;;;5110163;28;20483;-52
2022/12/05 10:09:34;;;;;;;11.00;6.20;;;;;;;;;;5075819;28;20472;-52
2022/12/05 10:12:00;;;;;;;;;;;;;;;;;;5092097;28;20035;-53
2022/12/05 10:14:29;;;;;;;8.48;5.78;;;;;;;;;;5092777;28;20002;-52
2022/12/05 10:16:56;;;;;;;9.27;5.68;;;;;;;;;;5098876;28;20391;-50
2022/12/05 10:19:26;;;;;;;8.82;5.68;;;;;;;;;;5109888;28;20395;-51
2022/12/05 10:21:57;;;;;;;10.65;6.32;;;;;;;;;;5094652;28;20589;-50
2022/12/05 10:24:29;;;;;;;7.25;4.68;;;;;;;;;;5108746;28;20073;-52
2022/12/05 10:26:59;;;;;;;8.80;5.65;;;;;;;;;;5101872;28;20020;-51
2022/12/05 10:29:45;;;;;;;8.52;5.63;;;;;;;;;;5092441;28;20042;-53
2022/12/05 10:32:19;;;;;;;7.68;5.43;;;;;;;;;;5088083;28;20024;-50
2022/12/05 10:34:46;;;;;;;7.47;5.07;;;;;;;;;;5088269;28;20024;-51
2022/12/05 10:37:16;;;;;;;7.30;5.15;;;;;;;;;;5089432;28;20368;-52
2022/12/05 10:39:43;;;;;;;8.07;5.65;;;;;;;;;;5089362;28;20023;-52
2022/12/05 10:42:26;;;;;;;7.93;5.68;;;;;;;;;;5088067;28;20395;-52
2022/12/05 10:44:56;;;;;;;7.15;5.20;;;;;;;;;;5088206;28;20111;-52
2022/12/05 10:47:22;;;;;;;7.95;5.50;;;;;;;;;;5088498;28;20016;-50
2022/12/05 10:49:49;;;;;;;8.13;5.40;;;;;;;;;;5087608;28;20020;-52
2022/12/05 10:52:15;;;;;;;7.78;5.50;;;;;;;;;;5088039;28;20107;-50
2022/12/05 10:54:46;;;;;;;6.93;4.60;;;;;;;;;;5088018;28;20103;-53
2022/12/05 10:57:23;;;;;;;6.90;4.88;;;;;;;;;;5088208;28;20024;-53
2022/12/05 10:59:49;;;;;;;6.43;4.10;;;;;;;;;;5088061;28;20027;-53
2022/12/05 11:02:24;;;;;;;6.97;4.47;;;;;;;;;;5088095;28;20020;-52
2022/12/05 11:04:50;;;;;;;6.53;4.10;;;;;;;;;;5093768;28;20094;-51
2022/12/05 11:07:24;;;;;;;6.55;4.10;;;;;;;;;;5089851;28;20023;-52
2022/12/05 11:09:56;;;;;;;5.88;4.07;;;;;;;;;;5098271;28;20488;-52
2022/12/05 11:12:25;;;;;;;5.63;3.65;;;;;;;;;;5097354;28;20097;-52
2022/12/05 11:15:21;;;;;;;4.20;3.08;;;;;;;;;;5108853;28;20504;-52
2022/12/05 11:17:48;;;;;;;4.15;3.00;;;;;;;;;;5108976;28;20016;-51
2022/12/05 11:20:17;;;;;;;5.28;3.63;;;;;;;;;;5105076;28;20027;-49
2022/12/05 11:22:44;;;;;;;3.65;2.72;;;;;;;;;;5092512;28;20031;-51
2022/12/05 11:25:28;;;;;;;3.75;2.95;;;;;;;;;;5108849;28;20081;-52
2022/12/05 11:27:58;;;;;;;3.60;2.75;;;;;;;;;;5103866;28;20024;-50
2022/12/05 11:30:26;;;;;;;4.55;3.03;;;;;;;;;;5097857;28;20081;-50
2022/12/05 11:33:13;;;;;;;3.60;2.50;;;;;;;;;;5096559;28;20032;-52
2022/12/05 11:35:39;;;;;;;3.85;2.70;;;;;;;;;;5082925;28;20047;-53
2022/12/05 11:38:05;;;;;;;3.47;2.30;;;;;;;;;;5096756;28;20032;-51
2022/12/05 11:40:50;;;;;;;3.22;2.40;;;;;;;;;;5089066;28;20032;-52
2022/12/05 11:43:31;;;;;;;3.72;2.85;;;;;;;;;;5081641;28;20034;-51
2022/12/05 11:45:57;;;;;;;3.78;2.95;;;;;;;;;;5079267;28;20032;-53
2022/12/05 11:48:26;;;;;;;3.95;2.70;;;;;;;;;;5082139;28;20424;-53
2022/12/05 11:51:01;;;;;;;3.42;2.75;;;;;;;;;;5076480;28;20146;-52
2022/12/05 11:53:40;;;;;;;3.42;2.40;;;;;;;;;;5091388;28;20078;-53
2022/12/05 11:56:29;;;;;;;3.15;2.47;;;;;;;;;;5105754;28;20063;-51
2022/12/05 11:59:00;;;;;;;3.58;2.45;;;;;;;;;;5087494;28;20481;-52
2022/12/05 12:01:26;;;;;;;4.88;3.28;;;;;;;;;;5102122;28;20086;-52
2022/12/05 12:03:58;;;;;;;4.95;3.30;;;;;;;;;;5102867;28;20035;-53
2022/12/05 12:06:24;;;;;;;6.40;4.00;;;;;;;;;;5109388;27;20106;-53
2022/12/05 12:09:09;;;;;;;4.80;4.00;;;;;;;;;;5092119;27;20098;-52
2022/12/05 12:11:44;;;;;;;5.28;4.25;;;;;;;;;;5092945;28;20031;-52
2022/12/05 12:14:19;;;;;;;6.35;4.65;;;;;;;;;;5099563;28;20024;-53
2022/12/05 12:16:53;;;;;;;5.90;4.65;;;;;;;;;;5097838;28;20047;-51
2022/12/05 12:19:28;;;;;;;6.03;4.65;;;;;;;;;;5107745;27;20102;-51
2022/12/05 12:22:03;;;;;;;4.70;3.70;;;;;;;;;;5106807;28;20035;-52
2022/12/05 12:24:41;;;;;;;4.82;3.92;;;;;;;;;;5102273;28;20448;-53
2022/12/05 12:27:19;;;;;;;4.13;3.70;;;;;;;;;;5097337;28;20024;-51
2022/12/05 12:29:45;;;;;;;4.95;3.67;;;;;;;;;;5091560;28;20012;-52
2022/12/05 12:32:30;;;;;;;3.53;3.08;;;;;;;;;;5093576;28;20148;-50
2022/12/05 12:35:14;;;;;;;4.22;3.15;;;;;;;;;;5098312;28;20031;-50
2022/12/05 12:37:40;;;;;;;;;;;;;;;;;;5092638;28;20418;-53
2022/12/05 12:40:26;;;;;;;4.10;3.03;;;;;;;;;;5107360;28;19908;-53
2022/12/05 12:42:55;;;;;;;3.75;2.78;;;;;;;;;;5097840;28;20387;-52
2022/12/05 12:45:21;;;;;;;3.78;2.80;;;;;;;;;;5093245;28;20032;-52
2022/12/05 12:47:59;;;;;;;3.55;2.70;;;;;;;;;;5102439;28;20104;-52
2022/12/05 12:50:27;;;;;;;2.78;2.10;;;;;;;;;;5095683;28;20116;-52
2022/12/05 12:52:53;;;;;;;2.50;2.25;;;;;;;;;;5111674;28;20055;-53
2022/12/05 12:55:38;;;;;;;3.97;2.60;;;;;;;;;;5111353;28;20078;-50
2022/12/05 12:58:11;;;;;;;3.15;2.53;;;;;;;;;;5091574;28;20032;-52
2022/12/05 13:00:37;;;;;;;2.47;2.28;;;;;;;;;;5091061;28;20487;-50
2022/12/05 13:03:07;;;;;;;2.50;2.10;;;;;;;;;;5111107;28;20031;-50
2022/12/05 13:05:33;;;;;;;2.13;1.83;;;;;;;;;;5111316;28;20056;-50
2022/12/05 13:08:06;;;;;;;3.30;2.22;;;;;;;;;;5109800;28;20024;-52
2022/12/05 13:10:35;;;;;;;4.88;3.17;;;;;;;;;;5111825;28;20028;-52
2022/12/05 13:13:02;;;;;;;3.20;2.85;;;;;;;;;;5095238;28;20051;-51
2022/12/05 13:15:39;;;;;;;4.68;3.50;;;;;;;;;;5095817;28;20482;-51
2022/12/05 13:18:07;;;;;;;3.40;2.60;;;;;;;;;;5110565;28;20395;-50
2022/12/05 13:20:34;;;;;;;3.58;2.72;;;;;;;;;;5092079;28;20403;-51
2022/12/05 13:23:00;;;;;;;5.38;3.85;;;;;;;;;;5093958;28;20036;-51
2022/12/05 13:25:29;;;;;;;5.38;3.47;;;;;;;;;;5090609;28;20046;-51
2022/12/05 13:28:02;;;;;;;3.90;3.40;;;;;;;;;;5093036;28;20034;-52
2022/12/05 13:30:29;;;;;;;6.10;4.25;;;;;;;;;;5102366;28;20024;-51
2022/12/05 13:33:08;;;;;;;5.07;4.10;;;;;;;;;;5098188;28;20028;-52
2022/12/05 13:43:54;;;;;;;5.43;3.90;;;;;;;;;;5102096;28;20545;-52
2022/12/05 13:46:41;;;;;;;4.65;3.45;;;;;;;;;;5105851;28;20061;-53
2022/12/05 13:49:19;;;;;;;4.07;2.95;;;;;;;;;;5090615;28;20028;-53
2022/12/05 13:51:45;;;;;;;3.35;2.38;;;;;;;;;;5097599;28;20022;-53
2022/12/05 13:54:14;;;;;;;3.03;2.42;;;;;;;;;;5097484;27;20175;-50
2022/12/05 13:56:54;;;;;;;2.80;2.25;;;;;;;;;;5101561;28;20034;-53
2022/12/05 13:59:39;;;;;;;3.13;2.40;;;;;;;;;;5095405;28;20028;-52
2022/12/05 14:02:05;;;;;;;;;;;;;;;;;;5101143;28;20031;-54
2022/12/05 14:04:43;;;;;;;3.70;2.70;;;;;;;;;;5108906;28;19953;-53
2022/12/05 14:07:10;;;;;;;3.22;2.42;;;;;;;;;;5100952;28;20127;-53
2022/12/05 14:09:49;;;;;;;3.40;2.35;;;;;;;;;;5106441;27;20024;-50
2022/12/05 14:12:15;;;;;;;3.22;2.30;;;;;;;;;;5097327;28;20067;-53
2022/12/05 14:14:56;;;;;;;3.72;2.65;;;;;;;;;;5110869;27;20047;-52
2022/12/05 14:17:23;;;;;;;2.97;2.40;;;;;;;;;;5120963;27;20323;-53
2022/12/05 14:19:52;;;;;;;2.58;2.10;;;;;;;;;;5107385;28;20386;-52
2022/12/05 14:22:37;;;;;;;2.63;2.00;;;;;;;;;;5107396;28;20027;-52
2022/12/05 14:25:08;;;;;;;2.40;2.13;;;;;;;;;;5107983;28;20391;-54
2022/12/05 14:27:53;;;;;;;2.42;1.88;;;;;;;;;;5108391;28;20108;-52
2022/12/05 14:30:18;;;;;;;;;;;;;;;;;;5107458;28;20016;-52
2022/12/05 14:32:45;;;;;;;3.55;2.28;;;;;;;;;;5087071;28;19911;-50
2022/12/05 14:35:17;;;;;;;2.88;2.10;;;;;;;;;;5087050;28;20032;-50
2022/12/05 14:37:52;;;;;;;2.83;2.17;;;;;;;;;;5087249;28;20028;-52
2022/12/05 14:40:18;;;;;;;2.53;2.03;;;;;;;;;;5087035;28;20032;-53
2022/12/05 14:42:52;;;;;;;2.80;2.10;;;;;;;;;;5086879;28;20506;-53
2022/12/05 14:45:36;;;;;;;2.40;2.00;;;;;;;;;;5086856;28;20035;-53
2022/12/05 14:48:24;;;;;;;2.25;1.85;;;;;;;;;;5087330;28;20040;-53
2022/12/05 14:50:52;;;;;;;1.83;1.67;;;;;;;;;;5070565;28;20115;-52
2022/12/05 14:53:21;;;;;;;1.85;1.60;;;;;;;;;;5091035;28;20080;-52
2022/12/05 14:56:02;;;;;;;2.15;1.80;;;;;;;;;;5089030;28;20060;-52
2022/12/05 14:58:47;;;;;;;2.00;1.80;;;;;;;;;;5086684;28;20052;-52
2022/12/05 15:01:28;;;;;;;1.75;1.63;;;;;;;;;;5086645;28;20032;-50
2022/12/05 15:03:54;;;;;;;2.70;1.98;;;;;;;;;;5087584;28;20077;-49
2022/12/05 15:06:21;;;;;;;2.38;2.13;;;;;;;;;;5100130;28;20410;-51
2022/12/05 15:08:49;;;;;;;2.35;1.83;;;;;;;;;;5099938;28;20024;-50
2022/12/05 15:11:28;;;;;;;2.25;1.73;;;;;;;;;;5089362;28;20320;-49
2022/12/05 15:14:18;;;;;;;2.97;2.13;;;;;;;;;;5080399;28;20054;-53
2022/12/05 15:16:45;;;;;;;2.30;2.08;;;;;;;;;;5073196;28;20099;-53
2022/12/05 15:19:17;;;;;;;2.90;2.13;;;;;;;;;;5081116;28;20077;-53
2022/12/05 15:21:48;;;;;;;2.10;1.90;;;;;;;;;;5080605;28;20086;-52
2022/12/05 15:24:15;;;;;;;1.98;1.77;;;;;;;;;;5078675;28;20038;-52
2022/12/05 15:26:47;;;;;;;2.85;2.10;;;;;;;;;;5072187;28;20036;-50
2022/12/05 15:29:16;;;;;;;3.10;2.10;;;;;;;;;;5071778;28;20517;-54
2022/12/05 15:31:50;;;;;;;3.35;2.45;;;;;;;;;;5075955;28;20025;-53
2022/12/05 15:34:25;;;;;;;7.05;4.55;;;;;;;;;;5075051;28;20104;-54
2022/12/05 15:36:55;;;;;;;7.45;5.03;;;;;;;;;;5078948;28;20403;-52
2022/12/05 15:39:24;;;;;;;5.50;4.07;;;;;;;;;;5081109;28;20024;-53
2022/12/05 15:41:50;;;;;;;5.18;3.70;;;;;;;;;;5080918;28;20069;-52
2022/12/05 15:44:18;;;;;;;5.72;3.20;;;;;;;;;;5080148;28;20032;-53
2022/12/05 15:46:44;;;;;;;5.38;3.72;;;;;;;;;;5079679;28;20023;-51
2022/12/05 15:49:22;;;;;;;5.60;3.30;;;;;;;;;;5081633;28;20029;-50
2022/12/05 15:51:50;;;;;;;6.07;3.30;;;;;;;;;;5075948;28;20028;-53
2022/12/05 15:54:21;;;;;;;5.47;3.45;;;;;;;;;;5078804;28;20031;-54
2022/12/05 15:56:52;;;;;;;7.07;4.10;;;;;;;;;;5076859;28;20430;-52
2022/12/05 15:59:22;;;;;;;13.70;5.05;;;;;;;;;;5080588;28;20110;-53
2022/12/05 16:01:55;;;;;;;10.07;5.38;;;;;;;;;;5077764;28;20447;-54
2022/12/05 16:04:28;;;;;;;9.05;4.88;;;;;;;;;;5077728;28;20028;-53
2022/12/05 16:06:55;;;;;;;7.75;4.75;;;;;;;;;;5079041;28;20036;-53
2022/12/05 16:09:23;;;;;;;9.00;5.10;;;;;;;;;;5080030;28;20024;-50
2022/12/05 16:11:53;;;;;;;10.70;5.30;;;;;;;;;;5081998;28;20036;-54
2022/12/05 16:14:19;;;;;;;10.55;5.47;;;;;;;;;;5085010;28;20171;-50
2022/12/05 16:16:45;;;;;;;11.52;6.40;;;;;;;;;;5089341;28;20023;-52
2022/12/05 16:19:16;;;;;;;12.07;6.80;;;;;;;;;;5090192;28;20116;-52
2022/12/05 16:21:46;;;;;;;12.25;6.72;;;;;;;;;;5088540;28;20081;-51
2022/12/05 16:24:20;;;;;;;14.18;7.15;;;;;;;;;;5088513;28;20024;-53
2022/12/05 16:27:12;;;;;;;14.00;8.40;;;;;;;;;;5088920;28;20024;-52
2022/12/05 16:29:38;;;;;;;11.40;7.22;;;;;;;;;;5084581;28;20162;-52
2022/12/05 16:32:13;;;;;;;11.10;6.43;;;;;;;;;;5084774;28;20415;-52
2022/12/05 16:34:40;;;;;;;10.48;6.47;;;;;;;;;;5086067;28;20027;-51
2022/12/05 16:37:07;;;;;;;9.75;5.97;;;;;;;;;;5084626;28;20141;-51
2022/12/05 16:39:33;;;;;;;9.63;5.85;;;;;;;;;;5089805;28;20035;-52
2022/12/05 16:41:59;;;;;;;13.88;7.13;;;;;;;;;;5085761;28;20051;-53
2022/12/05 16:44:30;;;;;;;12.30;7.15;;;;;;;;;;5085177;28;20031;-51
2022/12/05 16:46:56;;;;;;;13.23;7.70;;;;;;;;;;5087034;28;20569;-50
2022/12/05 16:49:33;;;;;;;14.05;7.88;;;;;;;;;;5088303;28;20045;-53
2022/12/05 16:52:12;;;;;;;13.38;8.20;;;;;;;;;;5077493;28;20078;-53
2022/12/05 16:54:38;;;;;;;10.77;6.88;;;;;;;;;;5085451;28;21744;-51
2022/12/05 16:57:04;;;;;;;11.18;6.30;;;;;;;;;;5082450;28;20031;-50
2022/12/05 16:59:33;;;;;;;9.23;5.25;;;;;;;;;;5083230;28;20035;-53
2022/12/05 17:02:00;;;;;;;8.93;6.25;;;;;;;;;;5083097;28;20055;-50
2022/12/05 17:04:27;;;;;;;10.20;7.20;;;;;;;;;;5087352;28;20035;-53
2022/12/05 17:06:53;;;;;;;11.52;7.97;;;;;;;;;;5084302;28;20483;-52
2022/12/05 17:09:19;;;;;;;15.80;9.68;;;;;;;;;;5084254;28;20121;-52
2022/12/05 17:11:46;;;;;;;11.75;7.32;;;;;;;;;;5086448;28;20108;-52
2022/12/05 17:14:13;;;;;;;9.88;6.72;;;;;;;;;;5084765;28;20672;-53
2022/12/05 17:16:40;;;;;;;9.23;6.22;;;;;;;;;;5086236;28;20495;-51
2022/12/05 17:19:06;;;;;;;8.55;5.43;;;;;;;;;;5088035;28;20507;-52
2022/12/05 17:21:33;;;;;;;7.80;4.90;;;;;;;;;;5087143;28;20629;-51
2022/12/05 17:23:59;;;;;;;8.52;5.43;;;;;;;;;;5091389;28;20502;-51
2022/12/05 17:26:25;;;;;;;7.35;4.97;;;;;;;;;;5084439;28;20027;-52
2022/12/05 17:28:51;;;;;;;7.43;5.03;;;;;;;;;;5089935;28;20024;-54
2022/12/05 17:31:19;;;;;;;8.20;5.38;;;;;;;;;;5089444;28;20099;-53
2022/12/05 17:33:45;;;;;;;7.75;5.07;;;;;;;;;;5087492;28;20103;-54
2022/12/05 17:36:11;;;;;;;7.72;4.60;;;;;;;;;;5081866;28;20443;-52
2022/12/05 17:38:38;;;;;;;7.05;4.65;;;;;;;;;;5069797;28;20119;-50
2022/12/05 17:41:05;;;;;;;12.30;6.20;;;;;;;;;;5084172;28;20078;-51
2022/12/05 17:43:31;;;;;;;13.45;7.18;;;;;;;;;;5088917;28;20040;-53
2022/12/05 17:45:59;;;;;;;11.93;7.13;;;;;;;;;;5076905;28;20035;-54
2022/12/05 17:48:25;;;;;;;9.73;5.70;;;;;;;;;;5079407;28;20023;-52
2022/12/05 17:50:51;;;;;;;11.15;7.03;;;;;;;;;;5069769;28;20021;-53
2022/12/05 17:53:19;;;;;;;11.52;6.45;;;;;;;;;;5088606;28;20016;-51
2022/12/05 17:55:48;;;;;;;13.65;8.07;;;;;;;;;;5070200;28;20487;-53
2022/12/05 17:58:15;;;;;;;17.52;8.82;;;;;;;;;;5088196;28;20039;-53
2022/12/05 18:00:42;;;;;;;11.50;7.13;;;;;;;;;;5082786;28;20138;-53
2022/12/05 18:03:11;;;;;;;13.15;7.60;;;;;;;;;;5052883;28;20028;-52
2022/12/05 18:05:37;;;;;;;25.33;14.48;;;;;;;;;;5076195;28;20040;-53
2022/12/05 18:08:03;;;;;;;21.13;12.38;;;;;;;;;;5071191;28;20033;-53
2022/12/05 18:10:30;;;;;;;18.80;10.68;;;;;;;;;;5078694;28;20066;-51
2022/12/05 18:12:56;;;;;;;18.70;10.05;;;;;;;;;;5096699;28;20516;-53
2022/12/05 18:15:22;;;;;;;14.68;8.80;;;;;;;;;;5091026;28;20457;-52
2022/12/05 18:17:48;;;;;;;20.55;12.80;;;;;;;;;;5101118;28;20118;-52
2022/12/05 18:20:15;;;;;;;30.00;16.85;;;;;;;;;;5098798;28;20106;-53
2022/12/05 18:22:41;;;;;;;31.02;18.58;;;;;;;;;;5106207;28;20023;-52
2022/12/05 18:25:07;;;;;;;23.67;15.30;;;;;;;;;;5084430;28;20036;-50
2022/12/05 18:27:34;;;;;;;22.50;13.80;;;;;;;;;;5087788;28;20027;-52
2022/12/05 18:30:00;;;;;;;17.33;10.65;;;;;;;;;;5087833;28;20387;-53
2022/12/05 18:32:26;;;;;;;15.90;9.65;;;;;;;;;;5086772;28;20016;-53
2022/12/05 18:34:52;;;;;;;13.88;8.18;;;;;;;;;;5087821;28;20028;-51
2022/12/05 18:37:21;;;;;;;11.95;6.93;;;;;;;;;;5087623;28;20503;-52
2022/12/05 18:39:47;;;;;;;9.00;6.15;;;;;;;;;;5088447;28;20044;-53
2022/12/05 18:42:13;;;;;;;8.68;5.68;;;;;;;;;;5086135;28;20058;-54
2022/12/05 18:44:39;;;;;;;9.15;5.88;;;;;;;;;;5087362;28;20055;-51
2022/12/05 18:47:05;;;;;;;9.15;5.90;;;;;;;;;;5090847;28;20099;-54
2022/12/05 18:49:31;;;;;;;8.65;5.35;;;;;;;;;;5100378;28;20037;-51
2022/12/05 18:51:57;;;;;;;11.80;6.28;;;;;;;;;;5097490;28;20500;-53
2022/12/05 18:54:23;;;;;;;9.52;5.93;;;;;;;;;;5080248;28;20036;-53
2022/12/05 18:56:51;;;;;;;10.88;6.07;;;;;;;;;;5101516;28;20081;-53
2022/12/05 18:59:18;;;;;;;9.27;5.78;;;;;;;;;;5102450;28;20031;-54
2022/12/05 19:01:44;;;;;;;10.18;5.18;;;;;;;;;;5102731;28;20448;-53
2022/12/05 19:04:11;;;;;;;9.00;5.20;;;;;;;;;;5097099;28;20403;-53
2022/12/05 19:06:38;;;;;;;8.80;5.53;;;;;;;;;;5090373;28;20094;-53
2022/12/05 19:09:09;;;;;;;9.50;5.05;;;;;;;;;;5097602;28;20388;-52
2022/12/05 19:11:35;;;;;;;8.75;5.20;;;;;;;;;;5090071;28;20035;-52
2022/12/05 19:14:02;;;;;;;6.95;4.63;;;;;;;;;;5098313;28;20038;-55
2022/12/05 19:16:29;;;;;;;6.97;4.53;;;;;;;;;;5097735;28;20028;-53
2022/12/05 19:18:56;;;;;;;6.45;4.57;;;;;;;;;;5092911;28;20027;-53
2022/12/05 19:21:23;;;;;;;7.28;4.72;;;;;;;;;;5084107;28;20110;-53
2022/12/05 19:23:49;;;;;;;6.47;4.30;;;;;;;;;;5095157;28;20028;-53
2022/12/05 19:26:15;;;;;;;6.57;4.60;;;;;;;;;;5072343;28;20027;-53
2022/12/05 19:28:41;;;;;;;6.65;4.63;;;;;;;;;;5096717;28;20023;-52
2022/12/05 19:31:08;;;;;;;8.93;5.72;;;;;;;;;;5097453;28;20035;-54
2022/12/05 19:33:36;;;;;;;7.55;5.57;;;;;;;;;;5093255;28;20063;-54
2022/12/05 19:36:03;;;;;;;9.10;6.07;;;;;;;;;;5093493;28;20027;-50
2022/12/05 19:38:31;;;;;;;8.98;6.03;;;;;;;;;;5095308;28;20035;-53
2022/12/05 19:40:57;;;;;;;8.40;5.60;;;;;;;;;;5076740;28;20035;-53
2022/12/05 19:43:23;;;;;;;9.07;5.65;;;;;;;;;;5093593;28;21358;-51
2022/12/05 19:45:50;;;;;;;8.82;5.80;;;;;;;;;;5100281;28;20062;-53
2022/12/05 19:48:17;;;;;;;9.15;5.65;;;;;;;;;;5081889;28;20024;-54
2022/12/05 19:50:43;;;;;;;8.25;5.95;;;;;;;;;;5103588;28;20521;-53
2022/12/05 19:53:11;;;;;;;9.57;5.55;;;;;;;;;;5101839;28;20166;-53
2022/12/05 19:55:37;;;;;;;9.93;6.10;;;;;;;;;;5091334;28;20027;-51
2022/12/05 19:58:03;;;;;;;10.35;6.57;;;;;;;;;;5087629;28;20024;-53
2022/12/05 20:00:31;;;;;;;8.50;6.53;;;;;;;;;;5074948;28;20039;-49
2022/12/05 20:02:57;;;;;;;10.50;6.78;;;;;;;;;;5088126;28;20480;-51
2022/12/05 20:05:23;;;;;;;10.68;7.03;;;;;;;;;;5068500;28;20058;-53
2022/12/05 20:07:51;;;;;;;12.32;7.45;;;;;;;;;;5086826;28;20506;-53
2022/12/05 20:10:17;;;;;;;11.63;7.10;;;;;;;;;;5071783;28;20024;-50